Alder Creek, New York
Current Conditions -  °F | °C
As of 7:53 AM on Friday 19 Dec 2014 (Local Time) from KRME Reporting Station
Overcast Overcast  
Wind Chill: 14°   Ceiling: 2300
Heat Index: 26°   Visibility: 9mi
Dew Point: 22°   Wind: 14mph
Humidity: 84%   Direction: 280°W
Pressure: 30.09"   Gusts: 21mph
Location:  43.42°N, 75.23°W
Report Text: KRME 191253Z 28012G18KT 9SM SCT013 OVC023 M03/M06 A3009 RMK AO2 UPB07E12B44E46FZRAB12E13SNB13E44B46E47 SLP193 P0000 I1001 T10331056
Loading
Personal Weather Stations






























Interactive Weather Map New forecast layout! Learn more

10-Day Weather Forecast

Advertisements
Track Severe Weather on mobile